Time;durP1;ratioP1;P1;durP2;ratioP2;P2;SDS_P1;SDS_P2;PMS_P1;PMS_P2;Temp;Humidity;BMP_temperature;BMP_pressure;BME280_temperature;BME280_humidity;BME280_pressure;Samples;Min_cycle;Max_cycle;Signal;HPM_P1;HPM_P2
2021/07/13 00:01:26;;;;;;;;;;;20.30;89.90;;;;;;5011033;28;19921;-63
2021/07/13 00:03:53;;;;;;;;;;;20.30;90.00;;;;;;5009388;28;20316;-65
2021/07/13 00:06:19;;;;;;;;;;;20.30;90.10;;;;;;5010618;28;20049;-65
2021/07/13 00:08:45;;;;;;;;;;;20.20;90.10;;;;;;5010400;28;20020;-65
2021/07/13 00:11:10;;;;;;;;;;;20.20;90.10;;;;;;5011050;28;19964;-66
2021/07/13 00:13:36;;;;;;;;;;;20.20;90.20;;;;;;5010543;28;19925;-65
2021/07/13 00:16:02;;;;;;;;;;;20.10;90.20;;;;;;5009344;28;19917;-66
2021/07/13 00:18:27;;;;;;;;;;;20.10;90.30;;;;;;5010335;28;19917;-65
2021/07/13 00:20:53;;;;;;;;;;;20.10;90.40;;;;;;5010487;28;19934;-63
2021/07/13 00:23:19;;;;;;;;;;;20.10;90.40;;;;;;5011056;28;19922;-65
2021/07/13 00:25:44;;;;;;;;;;;20.00;90.40;;;;;;5009801;28;20321;-65
2021/07/13 00:28:10;;;;;;;;;;;20.00;90.50;;;;;;4993293;28;19937;-65
2021/07/13 00:30:35;;;;;;;;;;;20.00;90.80;;;;;;5011118;28;19917;-65
2021/07/13 00:33:01;;;;;;;;;;;20.00;90.60;;;;;;5010070;28;19917;-65
2021/07/13 00:35:26;;;;;;;;;;;20.00;90.70;;;;;;5011479;28;19948;-66
2021/07/13 00:37:52;;;;;;;;;;;20.00;90.70;;;;;;5009533;28;19979;-65
2021/07/13 00:40:19;;;;;;;;;;;20.10;90.70;;;;;;4993842;28;19924;-65
2021/07/13 00:42:46;;;;;;;;;;;20.00;90.70;;;;;;5011525;28;19921;-65
2021/07/13 00:45:11;;;;;;;;;;;20.00;90.80;;;;;;5009813;28;19917;-65
2021/07/13 00:47:37;;;;;;;;;;;20.00;90.90;;;;;;5009943;28;20373;-64
2021/07/13 00:50:03;;;;;;;;;;;20.00;90.90;;;;;;5010820;28;20381;-65
2021/07/13 00:52:28;;;;;;;;;;;20.00;91.00;;;;;;5010129;28;20401;-65
2021/07/13 00:54:54;;;;;;;;;;;20.00;91.10;;;;;;4993745;28;19992;-65
2021/07/13 00:57:20;;;;;;;;;;;20.10;91.10;;;;;;5010014;28;19956;-65
2021/07/13 00:59:46;;;;;;;;;;;20.10;91.20;;;;;;5011186;28;20364;-65
2021/07/13 01:02:12;;;;;;;;;;;20.20;91.20;;;;;;5010719;28;20309;-66
2021/07/13 01:04:39;;;;;;;;;;;20.20;91.20;;;;;;5009743;28;20388;-65
2021/07/13 01:07:10;;;;;;;;;;;20.20;91.20;;;;;;5010607;28;19931;-66
2021/07/13 01:09:59;;;;;;;;;;;20.20;91.20;;;;;;5010265;28;20293;-64
2021/07/13 01:12:47;;;;;;;;;;;20.30;91.20;;;;;;5014250;28;19922;-65
2021/07/13 01:15:20;;;;;;;;;;;20.30;91.20;;;;;;5006397;28;19952;-63
2021/07/13 01:17:58;;;;;;;;;;;20.30;91.20;;;;;;5013007;28;19917;-63
2021/07/13 01:20:59;;;;;;;;;;;20.30;91.30;;;;;;5014578;28;19917;-64
2021/07/13 01:23:39;;;;;;;;;;;20.30;91.30;;;;;;4934236;29;20094;-64
2021/07/13 01:26:30;;;;;;;;;;;20.30;91.30;;;;;;5005075;28;19922;-65
2021/07/13 01:28:58;;;;;;;;;;;20.40;91.60;;;;;;5013545;28;20380;-65
2021/07/13 01:31:25;;;;;;;;;;;20.40;91.40;;;;;;5014291;28;19917;-65
2021/07/13 01:33:53;;;;;;;;;;;20.40;91.30;;;;;;5012584;28;19976;-65
2021/07/13 01:36:23;;;;;;;;;;;20.40;91.30;;;;;;5013720;28;19918;-65
2021/07/13 01:38:51;;;;;;;;;;;20.40;91.30;;;;;;5006982;28;20301;-64
2021/07/13 01:41:18;;;;;;;;;;;20.40;91.30;;;;;;5012314;28;19921;-66
2021/07/13 01:43:44;;;;;;;;;;;20.40;91.30;;;;;;5011522;28;19927;-65
2021/07/13 01:46:11;;;;;;;;;;;20.30;91.30;;;;;;5013000;28;20285;-65
2021/07/13 01:48:37;;;;;;;;;;;20.30;91.40;;;;;;5012440;28;19924;-65
2021/07/13 01:51:03;;;;;;;;;;;20.30;91.40;;;;;;5013588;28;19914;-66
2021/07/13 01:53:29;;;;;;;;;;;20.30;91.40;;;;;;5012561;28;19921;-65
2021/07/13 01:55:56;;;;;;;;;;;20.30;91.40;;;;;;4996131;28;19960;-65
2021/07/13 01:58:24;;;;;;;;;;;20.30;91.40;;;;;;5012712;28;20366;-66
2021/07/13 02:00:50;;;;;;;;;;;20.30;91.40;;;;;;5013823;28;19918;-64
2021/07/13 02:03:16;;;;;;;;;;;20.30;91.40;;;;;;5013191;28;19969;-65
2021/07/13 02:05:44;;;;;;;;;;;20.20;91.40;;;;;;5013092;28;20003;-65
2021/07/13 02:08:10;;;;;;;;;;;20.20;91.50;;;;;;5011775;28;19917;-65
2021/07/13 02:10:36;;;;;;;;;;;20.20;91.40;;;;;;5013218;28;19990;-65
2021/07/13 02:13:03;;;;;;;;;;;20.20;91.40;;;;;;5012316;28;19924;-65
2021/07/13 02:15:29;;;;;;;;;;;20.10;91.40;;;;;;5012404;28;19917;-65
2021/07/13 02:17:55;;;;;;;;;;;20.10;91.40;;;;;;5010945;28;19927;-66
2021/07/13 02:20:21;;;;;;;;;;;20.00;91.40;;;;;;5013212;28;19925;-65
2021/07/13 02:22:47;;;;;;;;;;;20.00;91.50;;;;;;5012827;28;19921;-67
2021/07/13 02:25:13;;;;;;;;;;;19.90;91.50;;;;;;5012007;28;19918;-65
2021/07/13 02:27:59;;;;;;;;;;;19.90;91.60;;;;;;5011899;28;20381;-65
2021/07/13 02:30:26;;;;;;;;;;;19.80;91.60;;;;;;5002353;28;19918;-65
2021/07/13 02:32:57;;;;;;;;;;;19.80;91.70;;;;;;5013176;28;19956;-65
2021/07/13 02:35:31;;;;;;;;;;;19.80;91.80;;;;;;5011365;28;19918;-65
2021/07/13 02:37:56;;;;;;;;;;;19.80;91.80;;;;;;5011893;28;19918;-65
2021/07/13 02:40:22;;;;;;;;;;;19.70;91.90;;;;;;5012631;28;19921;-65
2021/07/13 02:42:48;;;;;;;;;;;19.80;92.00;;;;;;5011538;28;19976;-65
2021/07/13 02:45:17;;;;;;;;;;;19.80;92.10;;;;;;5011648;28;19960;-65
2021/07/13 02:47:44;;;;;;;;;;;19.80;92.00;;;;;;5011500;28;20000;-65
2021/07/13 02:50:10;;;;;;;;;;;19.80;92.00;;;;;;4995443;28;19921;-65
2021/07/13 02:52:37;;;;;;;;;;;19.80;92.00;;;;;;5012365;28;19999;-65
2021/07/13 02:55:28;;;;;;;;;;;19.70;91.90;;;;;;5012725;28;20059;-65
2021/07/13 02:57:55;;;;;;;;;;;19.70;92.00;;;;;;4988697;28;19922;-65
2021/07/13 03:00:21;;;;;;;;;;;19.70;92.00;;;;;;4992946;28;19918;-65
2021/07/13 03:02:48;;;;;;;;;;;19.60;92.00;;;;;;4992720;28;19921;-66
2021/07/13 03:05:15;;;;;;;;;;;19.60;92.10;;;;;;4992718;28;20356;-66
2021/07/13 03:07:41;;;;;;;;;;;19.60;92.20;;;;;;4992730;28;20396;-66
2021/07/13 03:10:07;;;;;;;;;;;19.60;92.20;;;;;;5009122;28;19913;-64
2021/07/13 03:12:33;;;;;;;;;;;19.60;92.30;;;;;;5012714;28;19921;-64
2021/07/13 03:14:59;;;;;;;;;;;19.60;92.30;;;;;;5012476;28;19917;-65
2021/07/13 03:17:25;;;;;;;;;;;19.60;92.40;;;;;;5010694;28;20385;-64
2021/07/13 03:19:52;;;;;;;;;;;19.60;92.40;;;;;;5012490;28;19921;-65
2021/07/13 03:22:19;;;;;;;;;;;19.70;92.40;;;;;;4994426;28;19952;-65
2021/07/13 03:24:45;;;;;;;;;;;19.60;92.40;;;;;;5012214;28;20005;-65
2021/07/13 03:27:11;;;;;;;;;;;19.70;92.50;;;;;;5011078;28;19918;-64
2021/07/13 03:29:38;;;;;;;;;;;19.70;92.60;;;;;;5011768;28;20353;-63
2021/07/13 03:32:04;;;;;;;;;;;19.80;92.60;;;;;;5011968;28;19956;-64
2021/07/13 03:34:29;;;;;;;;;;;19.80;92.70;;;;;;5011149;28;20401;-66
2021/07/13 03:36:56;;;;;;;;;;;19.80;92.60;;;;;;5011392;28;19971;-65
2021/07/13 03:39:22;;;;;;;;;;;19.90;92.60;;;;;;5012161;28;19952;-65
2021/07/13 03:41:48;;;;;;;;;;;19.90;92.70;;;;;;5011503;28;19963;-64
2021/07/13 03:44:14;;;;;;;;;;;19.90;92.70;;;;;;5011803;28;19952;-65
2021/07/13 03:46:39;;;;;;;;;;;20.00;92.70;;;;;;5011702;28;19953;-66
2021/07/13 03:49:06;;;;;;;;;;;20.00;92.80;;;;;;5010649;28;19953;-65
2021/07/13 03:51:45;;;;;;;;;;;20.00;92.80;;;;;;5011729;28;19917;-65
2021/07/13 03:54:11;;;;;;;;;;;20.00;92.80;;;;;;5010039;28;20378;-63
2021/07/13 03:56:38;;;;;;;;;;;20.10;92.80;;;;;;5011213;28;19967;-66
2021/07/13 03:59:03;;;;;;;;;;;20.10;92.80;;;;;;5008824;28;20325;-63
2021/07/13 04:01:29;;;;;;;;;;;20.10;92.90;;;;;;4992819;28;19929;-64
2021/07/13 04:03:54;;;;;;;;;;;20.20;92.90;;;;;;5010534;28;20409;-65
2021/07/13 04:06:20;;;;;;;;;;;20.20;92.80;;;;;;5010247;28;19922;-64
2021/07/13 04:08:45;;;;;;;;;;;20.20;93.00;;;;;;5009104;28;19918;-63
2021/07/13 04:11:11;;;;;;;;;;;20.30;93.10;;;;;;5009686;28;20369;-65
2021/07/13 04:13:37;;;;;;;;;;;20.30;92.90;;;;;;5010525;28;20008;-65
2021/07/13 04:16:02;;;;;;;;;;;20.30;92.90;;;;;;5006948;28;19957;-65
2021/07/13 04:18:28;;;;;;;;;;;20.30;92.80;;;;;;5009732;28;20440;-65
2021/07/13 04:20:54;;;;;;;;;;;20.40;92.80;;;;;;5009191;28;19928;-65
2021/07/13 04:23:20;;;;;;;;;;;20.40;92.90;;;;;;5009716;28;19929;-65
2021/07/13 04:25:46;;;;;;;;;;;20.40;92.90;;;;;;5008989;28;19924;-66
2021/07/13 04:28:11;;;;;;;;;;;20.40;92.80;;;;;;5008820;28;19925;-65
2021/07/13 04:30:37;;;;;;;;;;;20.50;92.90;;;;;;5010485;28;20484;-64
2021/07/13 04:33:03;;;;;;;;;;;20.40;92.80;;;;;;5008318;28;19921;-64
2021/07/13 04:35:29;;;;;;;;;;;20.50;92.90;;;;;;5009897;28;19925;-65
2021/07/13 04:37:55;;;;;;;;;;;20.50;92.90;;;;;;5008146;28;20350;-65
2021/07/13 04:40:21;;;;;;;;;;;20.60;93.00;;;;;;5007981;28;20369;-65
2021/07/13 04:42:47;;;;;;;;;;;20.60;92.80;;;;;;5009330;28;19922;-64
2021/07/13 04:45:12;;;;;;;;;;;20.60;92.70;;;;;;5010931;28;19944;-66
2021/07/13 04:47:38;;;;;;;;;;;20.70;92.80;;;;;;5014257;28;19921;-65
2021/07/13 04:50:05;;;;;;;;;;;20.70;93.00;;;;;;5014672;28;19924;-63
2021/07/13 04:52:30;;;;;;;;;;;20.80;93.10;;;;;;5010026;28;20301;-66
2021/07/13 04:54:56;;;;;;;;;;;20.90;93.00;;;;;;5014606;28;19924;-65
2021/07/13 04:57:21;;;;;;;;;;;21.00;93.00;;;;;;5011746;28;19917;-65
2021/07/13 04:59:47;;;;;;;;;;;21.10;92.90;;;;;;5013398;28;20385;-66
2021/07/13 05:02:12;;;;;;;;;;;21.20;92.60;;;;;;5002819;28;20259;-65
2021/07/13 05:04:38;;;;;;;;;;;21.20;92.60;;;;;;5010029;28;20321;-64
2021/07/13 05:07:04;;;;;;;;;;;21.30;92.60;;;;;;5008323;28;20031;-67
2021/07/13 05:09:29;;;;;;;;;;;21.40;92.60;;;;;;5007221;28;19937;-67
2021/07/13 05:11:55;;;;;;;;;;;21.50;92.50;;;;;;5012841;28;19921;-67
2021/07/13 05:14:20;;;;;;;;;;;21.50;92.60;;;;;;5013279;28;19918;-65
2021/07/13 05:16:46;;;;;;;;;;;21.70;92.50;;;;;;5008070;28;19929;-66
2021/07/13 05:19:13;;;;;;;;;;;21.80;92.30;;;;;;4983294;28;19918;-67
2021/07/13 05:21:41;;;;;;;;;;;21.90;92.40;;;;;;5013610;28;19983;-65
2021/07/13 05:24:06;;;;;;;;;;;22.00;92.20;;;;;;5008287;28;19921;-65
2021/07/13 05:26:32;;;;;;;;;;;22.10;92.10;;;;;;5013156;28;20378;-65
2021/07/13 05:29:01;;;;;;;;;;;22.30;92.10;;;;;;5013390;28;19972;-66
2021/07/13 05:31:27;;;;;;;;;;;22.40;92.00;;;;;;5013307;28;19990;-66
2021/07/13 05:33:57;;;;;;;;;;;22.60;92.00;;;;;;5013022;28;19934;-66
2021/07/13 05:36:25;;;;;;;;;;;22.80;91.60;;;;;;5013790;28;19948;-67
2021/07/13 05:38:53;;;;;;;;;;;23.00;91.50;;;;;;5013893;28;19924;-66
2021/07/13 05:41:22;;;;;;;;;;;23.10;91.30;;;;;;5014006;28;19944;-65
2021/07/13 05:43:48;;;;;;;;;;;23.20;90.90;;;;;;5013434;28;19933;-66
2021/07/13 05:46:14;;;;;;;;;;;23.20;90.70;;;;;;5013923;28;19972;-65
2021/07/13 05:48:40;;;;;;;;;;;23.30;90.60;;;;;;5013008;28;20297;-66
2021/07/13 05:51:05;;;;;;;;;;;23.30;90.40;;;;;;5013809;28;19918;-66
2021/07/13 05:53:33;;;;;;;;;;;23.50;90.60;;;;;;5013893;28;19918;-65
2021/07/13 05:55:58;;;;;;;;;;;23.50;90.10;;;;;;5012962;28;19918;-66
2021/07/13 05:58:24;;;;;;;;;;;23.70;90.10;;;;;;5013420;28;20170;-66
2021/07/13 06:00:49;;;;;;;;;;;23.70;89.80;;;;;;5013777;28;19921;-65
2021/07/13 06:03:15;;;;;;;;;;;23.80;89.00;;;;;;5013052;28;19921;-67
2021/07/13 06:05:40;;;;;;;;;;;24.00;90.20;;;;;;5013299;28;19918;-67
2021/07/13 06:08:06;;;;;;;;;;;24.30;89.80;;;;;;5011832;28;19918;-66
2021/07/13 06:10:32;;;;;;;;;;;24.50;87.90;;;;;;4996152;28;20001;-66
2021/07/13 06:12:57;;;;;;;;;;;24.60;88.20;;;;;;5012301;28;19921;-67
2021/07/13 06:15:23;;;;;;;;;;;25.00;89.00;;;;;;4995908;28;19924;-66
2021/07/13 06:17:48;;;;;;;;;;;26.00;90.50;;;;;;5013039;28;19924;-66
2021/07/13 06:20:14;;;;;;;;;;;27.20;90.50;;;;;;5012866;28;19928;-66
2021/07/13 06:22:40;;;;;;;;;;;28.50;89.50;;;;;;4995590;28;20374;-66
2021/07/13 06:25:07;;;;;;;;;;;29.60;86.30;;;;;;5012938;28;20008;-67
2021/07/13 06:27:32;;;;;;;;;;;30.50;82.70;;;;;;5012576;28;19921;-67
2021/07/13 06:29:58;;;;;;;;;;;31.30;80.10;;;;;;5013284;28;20016;-67
2021/07/13 06:32:23;;;;;;;;;;;31.90;77.60;;;;;;5013078;28;19917;-66
2021/07/13 06:34:49;;;;;;;;;;;32.60;74.50;;;;;;5012780;28;19917;-67
2021/07/13 06:37:15;;;;;;;;;;;33.20;71.70;;;;;;5013007;28;19971;-67
2021/07/13 06:39:40;;;;;;;;;;;33.70;68.90;;;;;;5012844;28;19924;-67
2021/07/13 06:42:06;;;;;;;;;;;34.30;66.90;;;;;;5012561;28;19922;-66
2021/07/13 06:44:31;;;;;;;;;;;34.80;63.70;;;;;;5012827;28;20377;-68
2021/07/13 06:46:57;;;;;;;;;;;35.20;62.10;;;;;;5010931;28;20289;-67
2021/07/13 06:49:22;;;;;;;;;;;35.60;59.80;;;;;;5012496;28;20017;-66
2021/07/13 06:51:48;;;;;;;;;;;36.00;58.00;;;;;;5011705;28;19924;-68
2021/07/13 06:54:13;;;;;;;;;;;36.40;56.40;;;;;;5012484;28;19926;-66
2021/07/13 06:56:39;;;;;;;;;;;36.80;55.20;;;;;;5012408;28;19937;-68
2021/07/13 06:59:04;;;;;;;;;;;37.30;54.20;;;;;;5012692;28;20304;-68
2021/07/13 07:01:30;;;;;;;;;;;37.80;52.20;;;;;;5012098;28;20378;-67
2021/07/13 07:03:56;;;;;;;;;;;38.20;50.60;;;;;;5012646;28;19921;-67
2021/07/13 07:06:21;;;;;;;;;;;38.30;48.50;;;;;;5012309;28;19929;-68
2021/07/13 07:08:47;;;;;;;;;;;38.60;48.10;;;;;;5011302;28;19968;-67
2021/07/13 07:11:12;;;;;;;;;;;39.00;47.50;;;;;;5011163;28;19918;-67
2021/07/13 07:13:38;;;;;;;;;;;39.40;46.60;;;;;;4994577;28;19918;-68
2021/07/13 07:16:04;;;;;;;;;;;39.80;45.30;;;;;;5012449;28;19918;-68
2021/07/13 07:18:29;;;;;;;;;;;40.30;44.40;;;;;;5012119;28;20428;-68
2021/07/13 07:20:55;;;;;;;;;;;40.70;43.60;;;;;;5011911;28;19924;-67
2021/07/13 07:23:21;;;;;;;;;;;41.10;43.30;;;;;;5011048;28;19972;-67
2021/07/13 07:25:46;;;;;;;;;;;41.70;42.00;;;;;;5010242;28;20027;-68
2021/07/13 07:28:12;;;;;;;;;;;42.10;40.70;;;;;;5010662;28;19924;-67
2021/07/13 07:30:38;;;;;;;;;;;42.50;39.90;;;;;;5011844;28;19918;-67
2021/07/13 07:33:04;;;;;;;;;;;42.80;39.30;;;;;;5012453;28;19917;-68
2021/07/13 07:35:30;;;;;;;;;;;43.20;38.60;;;;;;5011266;28;19944;-68
2021/07/13 07:37:56;;;;;;;;;;;43.60;37.90;;;;;;5010252;28;20313;-68
2021/07/13 07:40:22;;;;;;;;;;;44.00;37.40;;;;;;5011432;28;19917;-67
2021/07/13 07:42:49;;;;;;;;;;;44.20;36.30;;;;;;5011859;28;19967;-68
2021/07/13 07:45:17;;;;;;;;;;;44.40;36.10;;;;;;5011017;28;19918;-68
2021/07/13 07:47:43;;;;;;;;;;;44.60;35.50;;;;;;5010759;28;20285;-68
2021/07/13 07:50:09;;;;;;;;;;;44.70;34.80;;;;;;5011738;28;19917;-67
2021/07/13 07:52:34;;;;;;;;;;;44.80;34.80;;;;;;5010204;28;20116;-67
2021/07/13 07:55:00;;;;;;;;;;;45.00;34.60;;;;;;5011659;28;19984;-68
2021/07/13 07:57:26;;;;;;;;;;;45.30;33.90;;;;;;5010356;28;19982;-70
2021/07/13 07:59:51;;;;;;;;;;;45.50;33.60;;;;;;5011322;28;19969;-67
2021/07/13 08:02:17;;;;;;;;;;;45.90;33.50;;;;;;5011931;28;19975;-68
2021/07/13 08:04:43;;;;;;;;;;;46.20;32.70;;;;;;5011666;28;20000;-66
2021/07/13 08:07:09;;;;;;;;;;;46.40;32.30;;;;;;5011043;28;19965;-67
2021/07/13 08:09:34;;;;;;;;;;;46.30;32.00;;;;;;5011779;28;19914;-66
2021/07/13 08:12:00;;;;;;;;;;;46.50;32.00;;;;;;5011064;28;20412;-69
2021/07/13 08:14:25;;;;;;;;;;;47.10;31.80;;;;;;5011407;28;19920;-67
2021/07/13 08:16:53;;;;;;;;;;;47.40;30.80;;;;;;5010232;28;19922;-66
2021/07/13 08:19:19;;;;;;;;;;;46.90;30.10;;;;;;5012522;28;19978;-67
2021/07/13 08:21:45;;;;;;;;;;;46.30;30.40;;;;;;5015514;28;19922;-66
2021/07/13 08:24:11;;;;;;;;;;;46.00;30.30;;;;;;5015662;28;19918;-67
2021/07/13 08:26:37;;;;;;;;;;;45.70;30.20;;;;;;5013485;28;19925;-68
2021/07/13 08:29:03;;;;;;;;;;;46.10;30.70;;;;;;5015714;28;19914;-68
2021/07/13 08:31:29;;;;;;;;;;;46.70;30.20;;;;;;5015133;28;19984;-68
2021/07/13 08:33:54;;;;;;;;;;;47.60;30.00;;;;;;5014073;28;20390;-68
2021/07/13 08:36:20;;;;;;;;;;;48.30;29.50;;;;;;5015610;28;19917;-66
2021/07/13 08:38:46;;;;;;;;;;;48.90;29.00;;;;;;5013503;28;20385;-67
2021/07/13 08:41:12;;;;;;;;;;;49.40;28.60;;;;;;5015240;28;20305;-68
2021/07/13 08:43:37;;;;;;;;;;;49.70;28.30;;;;;;5013857;28;20029;-68
2021/07/13 08:46:03;;;;;;;;;;;49.80;27.70;;;;;;5014872;28;20380;-65
2021/07/13 08:48:29;;;;;;;;;;;49.60;27.00;;;;;;5014605;28;19921;-67
2021/07/13 08:50:55;;;;;;;;;;;48.90;27.30;;;;;;5016371;28;20313;-68
2021/07/13 08:53:21;;;;;;;;;;;49.10;27.70;;;;;;5015216;28;20056;-69
2021/07/13 08:55:47;;;;;;;;;;;49.70;27.30;;;;;;5014731;28;19983;-68
2021/07/13 08:58:14;;;;;;;;;;;49.30;26.90;;;;;;5014108;28;19924;-68
2021/07/13 09:00:39;;;;;;;;;;;48.30;26.60;;;;;;5014916;28;20400;-68
2021/07/13 09:03:09;;;;;;;;;;;47.50;27.50;;;;;;5013745;28;19933;-66
2021/07/13 09:06:00;;;;;;;;;;;47.70;27.90;;;;;;5014450;28;20436;-67
2021/07/13 09:08:26;;;;;;;;;;;47.00;27.40;;;;;;5006530;28;20282;-65
2021/07/13 09:11:01;;;;;;;;;;;46.70;28.10;;;;;;5014489;28;20339;-67
2021/07/13 09:13:30;;;;;;;;;;;47.40;28.20;;;;;;5014029;28;20007;-67
2021/07/13 09:15:57;;;;;;;;;;;48.40;27.90;;;;;;5014522;28;19924;-66
2021/07/13 09:18:32;;;;;;;;;;;49.30;27.30;;;;;;5014299;28;20004;-68
2021/07/13 09:21:18;;;;;;;;;;;50.30;27.10;;;;;;5014108;28;19917;-66
2021/07/13 09:24:02;;;;;;;;;;;51.20;26.80;;;;;;5014144;28;19921;-67
2021/07/13 09:26:38;;;;;;;;;;;52.10;26.60;;;;;;5013083;28;19917;-69
2021/07/13 09:29:04;;;;;;;;;;;53.00;26.20;;;;;;5013918;28;19955;-68
2021/07/13 09:31:29;;;;;;;;;;;52.60;25.00;;;;;;5014034;28;19914;-68
2021/07/13 09:33:55;;;;;;;;;;;51.70;25.30;;;;;;5013870;28;19928;-68
2021/07/13 09:36:20;;;;;;;;;;;50.10;25.40;;;;;;5012907;28;19924;-66
2021/07/13 09:38:46;;;;;;;;;;;49.80;26.40;;;;;;5014133;28;19918;-68
2021/07/13 09:41:13;;;;;;;;;;;50.40;26.30;;;;;;5013652;28;20550;-67
2021/07/13 09:43:44;;;;;;;;;;;50.10;25.90;;;;;;5014038;28;19928;-68
2021/07/13 09:46:23;;;;;;;;;;;49.20;26.00;;;;;;5012755;28;20233;-66
2021/07/13 09:49:08;;;;;;;;;;;48.20;26.40;;;;;;5013521;28;19921;-67
2021/07/13 09:51:33;;;;;;;;;;;48.20;27.40;;;;;;5013528;28;20362;-66
2021/07/13 09:53:59;;;;;;;;;;;49.20;27.50;;;;;;5013987;28;19953;-67
2021/07/13 09:56:40;;;;;;;;;;;49.90;27.00;;;;;;5014042;28;19960;-68
2021/07/13 09:59:06;;;;;;;;;;;50.30;26.50;;;;;;5013446;28;19918;-66
2021/07/13 10:01:32;;;;;;;;;;;50.20;26.20;;;;;;5013957;28;19963;-68
2021/07/13 10:03:58;;;;;;;;;;;50.60;26.60;;;;;;5013126;28;20012;-68
2021/07/13 10:06:24;;;;;;;;;;;50.70;26.20;;;;;;5013509;28;20001;-67
2021/07/13 10:08:50;;;;;;;;;;;49.10;25.70;;;;;;5013107;28;19986;-66
2021/07/13 10:11:16;;;;;;;;;;;47.90;26.80;;;;;;5012100;28;19949;-67
2021/07/13 10:13:43;;;;;;;;;;;48.70;27.30;;;;;;5013421;28;20373;-67
2021/07/13 10:16:09;;;;;;;;;;;50.10;26.70;;;;;;5013592;28;19917;-69
2021/07/13 10:18:35;;;;;;;;;;;51.20;26.00;;;;;;5013083;28;19914;-69
2021/07/13 10:21:01;;;;;;;;;;;51.90;25.60;;;;;;5013478;28;19918;-67
2021/07/13 10:23:28;;;;;;;;;;;52.40;25.10;;;;;;4995416;28;19925;-68
2021/07/13 10:25:54;;;;;;;;;;;53.00;24.80;;;;;;5013262;28;19956;-66
2021/07/13 10:28:21;;;;;;;;;;;52.90;24.30;;;;;;5011663;28;19921;-67
2021/07/13 10:30:49;;;;;;;;;;;52.20;24.50;;;;;;5012818;28;19918;-67
2021/07/13 10:33:31;;;;;;;;;;;52.00;24.80;;;;;;5013344;28;19927;-67
2021/07/13 10:36:16;;;;;;;;;;;50.90;24.70;;;;;;5012825;28;19917;-67
2021/07/13 10:38:41;;;;;;;;;;;49.80;25.10;;;;;;5012928;28;19957;-69
2021/07/13 10:41:10;;;;;;;;;;;50.20;25.70;;;;;;5012735;28;19960;-68
2021/07/13 10:43:44;;;;;;;;;;;50.90;25.50;;;;;;5012333;28;19926;-69
2021/07/13 10:46:11;;;;;;;;;;;50.60;24.90;;;;;;5011726;28;19921;-67
2021/07/13 10:48:40;;;;;;;;;;;49.50;25.40;;;;;;5012410;28;19918;-67
2021/07/13 10:51:07;;;;;;;;;;;50.30;26.20;;;;;;5012444;28;19921;-67
2021/07/13 10:53:38;;;;;;;;;;;50.80;25.40;;;;;;5012919;28;20352;-65
2021/07/13 10:56:11;;;;;;;;;;;48.70;24.60;;;;;;5010927;28;20469;-67
2021/07/13 10:58:38;;;;;;;;;;;45.50;25.50;;;;;;5012354;28;20288;-66
2021/07/13 11:01:06;;;;;;;;;;;43.00;26.60;;;;;;5013961;28;20400;-66
2021/07/13 11:06:18;;;;;;;;;;;41.90;30.40;;;;;;5013351;28;19967;-69
2021/07/13 11:08:44;;;;;;;;;;;43.90;30.00;;;;;;5012059;28;19980;-68
2021/07/13 11:11:22;;;;;;;;;;;44.70;29.50;;;;;;5012711;28;19925;-68
2021/07/13 11:13:47;;;;;;;;;;;44.00;28.10;;;;;;5012186;28;20389;-68
2021/07/13 11:16:14;;;;;;;;;;;42.40;28.80;;;;;;5012428;28;19971;-69
2021/07/13 11:18:40;;;;;;;;;;;43.00;30.60;;;;;;5012340;28;19914;-69
2021/07/13 11:21:18;;;;;;;;;;;45.10;30.20;;;;;;5011895;28;19980;-69
2021/07/13 11:23:44;;;;;;;;;;;46.10;28.90;;;;;;5012217;28;19968;-67
2021/07/13 11:26:11;;;;;;;;;;;45.20;28.30;;;;;;5011716;28;19929;-69
2021/07/13 11:28:37;;;;;;;;;;;43.80;28.10;;;;;;5010646;28;19971;-68
2021/07/13 11:31:03;;;;;;;;;;;42.10;28.70;;;;;;5010921;28;19930;-68
2021/07/13 11:33:29;;;;;;;;;;;42.10;30.60;;;;;;5009160;28;19917;-68
2021/07/13 11:36:00;;;;;;;;;;;42.50;30.60;;;;;;5008773;28;19980;-68
2021/07/13 11:38:34;;;;;;;;;;;42.80;30.40;;;;;;5003526;28;19929;-68
2021/07/13 11:41:13;;;;;;;;;;;42.40;29.80;;;;;;5009069;28;19917;-68
2021/07/13 11:43:40;;;;;;;;;;;41.60;29.70;;;;;;5009051;28;19949;-67
2021/07/13 11:46:17;;;;;;;;;;;40.90;29.90;;;;;;5010192;28;19928;-68
2021/07/13 11:49:02;;;;;;;;;;;40.30;30.20;;;;;;5011074;28;19917;-66
2021/07/13 11:51:29;;;;;;;;;;;40.00;30.80;;;;;;5002608;28;19926;-68
2021/07/13 11:53:57;;;;;;;;;;;39.30;30.70;;;;;;5009234;28;19917;-67
2021/07/13 11:56:24;;;;;;;;;;;38.50;31.20;;;;;;5008869;28;19917;-67
2021/07/13 11:58:50;;;;;;;;;;;37.90;32.20;;;;;;5008728;28;20149;-68
2021/07/13 12:01:17;;;;;;;;;;;37.60;33.20;;;;;;5011021;28;20429;-68
2021/07/13 12:03:42;;;;;;;;;;;37.40;33.60;;;;;;5011410;28;19949;-68
2021/07/13 12:06:14;;;;;;;;;;;37.00;33.50;;;;;;5009606;28;22445;-68
2021/07/13 12:08:40;;;;;;;;;;;36.50;34.10;;;;;;5009560;28;19918;-67
2021/07/13 12:11:07;;;;;;;;;;;36.10;34.80;;;;;;5008228;28;20309;-67
2021/07/13 12:13:33;;;;;;;;;;;35.70;36.20;;;;;;5009814;28;19928;-67
2021/07/13 12:16:18;;;;;;;;;;;35.40;36.20;;;;;;5009926;28;19922;-67
2021/07/13 12:18:45;;;;;;;;;;;35.10;36.80;;;;;;5001226;28;19924;-68
2021/07/13 12:21:14;;;;;;;;;;;34.90;37.50;;;;;;5009922;28;19928;-67
2021/07/13 12:23:45;;;;;;;;;;;34.70;37.60;;;;;;5009365;28;20403;-66
2021/07/13 12:26:21;;;;;;;;;;;34.60;37.90;;;;;;5009909;28;19967;-67
2021/07/13 12:29:00;;;;;;;;;;;34.50;38.50;;;;;;5015920;28;19944;-67
2021/07/13 12:31:26;;;;;;;;;;;34.70;38.50;;;;;;5002523;28;19921;-67
2021/07/13 12:33:52;;;;;;;;;;;34.70;38.60;;;;;;4993570;28;20292;-67
2021/07/13 12:36:31;;;;;;;;;;;34.70;38.50;;;;;;5009770;28;19917;-66
2021/07/13 12:38:57;;;;;;;;;;;34.50;38.80;;;;;;5010447;28;20012;-66
2021/07/13 12:41:28;;;;;;;;;;;34.40;39.50;;;;;;5011272;28;20009;-67
2021/07/13 12:43:54;;;;;;;;;;;34.30;39.50;;;;;;5011333;28;19925;-67
2021/07/13 12:46:29;;;;;;;;;;;34.10;39.60;;;;;;5010890;28;19929;-68
2021/07/13 12:48:56;;;;;;;;;;;34.00;39.80;;;;;;5009425;28;19928;-66
2021/07/13 12:51:22;;;;;;;;;;;34.10;40.50;;;;;;5010858;28;19913;-67
2021/07/13 12:54:01;;;;;;;;;;;34.40;39.80;;;;;;5011118;28;19924;-68
2021/07/13 12:56:29;;;;;;;;;;;34.70;40.00;;;;;;4993059;28;20404;-68
2021/07/13 12:59:03;;;;;;;;;;;34.90;40.20;;;;;;5010733;28;19968;-68
2021/07/13 13:01:28;;;;;;;;;;;35.10;39.70;;;;;;5011065;28;19933;-66
2021/07/13 13:04:08;;;;;;;;;;;35.20;39.90;;;;;;4993148;28;19925;-68
2021/07/13 13:06:33;;;;;;;;;;;35.20;39.60;;;;;;5010952;28;20050;-68
2021/07/13 13:09:05;;;;;;;;;;;35.10;39.30;;;;;;5014943;28;19914;-69
2021/07/13 13:11:32;;;;;;;;;;;34.90;39.10;;;;;;5014644;28;20008;-67
2021/07/13 13:14:00;;;;;;;;;;;34.70;38.60;;;;;;5013078;28;19952;-67
2021/07/13 13:16:28;;;;;;;;;;;34.30;38.30;;;;;;5015204;28;19961;-69
2021/07/13 13:18:54;;;;;;;;;;;33.90;38.30;;;;;;5013341;28;20309;-68
2021/07/13 13:21:20;;;;;;;;;;;33.50;38.20;;;;;;5014128;28;20383;-66
2021/07/13 13:23:46;;;;;;;;;;;33.20;38.50;;;;;;5014226;28;20213;-68
2021/07/13 13:26:11;;;;;;;;;;;33.00;38.60;;;;;;5013785;28;19917;-67
2021/07/13 13:28:39;;;;;;;;;;;32.90;38.90;;;;;;5014160;28;19918;-68
2021/07/13 13:31:05;;;;;;;;;;;33.00;39.10;;;;;;5013980;28;19918;-67
2021/07/13 13:33:32;;;;;;;;;;;33.10;38.60;;;;;;5014765;28;20298;-67
2021/07/13 13:36:13;;;;;;;;;;;33.10;38.30;;;;;;5013396;28;19922;-69
2021/07/13 13:41:24;;;;;;;;;;;33.10;38.30;;;;;;5012790;28;19972;-70
2021/07/13 13:43:50;;;;;;;;;;;33.00;38.20;;;;;;5011696;28;19975;-68
2021/07/13 13:46:15;;;;;;;;;;;32.80;38.60;;;;;;5014761;28;20020;-69
2021/07/13 13:48:41;;;;;;;;;;;32.80;39.10;;;;;;5008478;28;19928;-69
2021/07/13 13:51:07;;;;;;;;;;;32.80;38.80;;;;;;5011810;28;19918;-70
2021/07/13 13:53:34;;;;;;;;;;;32.80;38.90;;;;;;5013922;28;20028;-69
2021/07/13 13:56:00;;;;;;;;;;;32.80;39.30;;;;;;5013443;28;20316;-69
2021/07/13 13:58:26;;;;;;;;;;;32.80;39.60;;;;;;5012512;28;19996;-69
2021/07/13 14:00:51;;;;;;;;;;;32.80;40.00;;;;;;5012190;28;19921;-69
2021/07/13 14:03:17;;;;;;;;;;;32.90;39.80;;;;;;5013738;28;19999;-70
2021/07/13 14:05:42;;;;;;;;;;;32.80;40.20;;;;;;5012002;28;19960;-69
2021/07/13 14:08:08;;;;;;;;;;;32.70;40.50;;;;;;5011691;28;19976;-68
2021/07/13 14:10:33;;;;;;;;;;;32.60;41.00;;;;;;5012122;28;19925;-68
2021/07/13 14:12:59;;;;;;;;;;;32.50;41.50;;;;;;5011899;28;19925;-69
2021/07/13 14:15:26;;;;;;;;;;;32.40;42.00;;;;;;5012948;28;19917;-69
2021/07/13 14:17:52;;;;;;;;;;;32.30;42.30;;;;;;5011209;28;20008;-69
2021/07/13 14:20:18;;;;;;;;;;;32.30;42.70;;;;;;5012338;28;20360;-68
2021/07/13 14:22:45;;;;;;;;;;;32.10;43.00;;;;;;5013158;28;20021;-69
2021/07/13 14:25:15;;;;;;;;;;;32.10;43.40;;;;;;5013338;28;20374;-69